Time;durP1;ratioP1;P1;durP2;ratioP2;P2;SDS_P1;SDS_P2;PMS_P1;PMS_P2;Temp;Humidity;BMP_temperature;BMP_pressure;BME280_temperature;BME280_humidity;BME280_pressure;Samples;Min_cycle;Max_cycle;Signal;HPM_P1;HPM_P2
2022/08/02 00:00:15;;;;;;;4.70;3.88;;;18.00;99.90;;;;;;5017767;28;20229;-77
2022/08/02 00:02:43;;;;;;;4.88;3.45;;;18.00;99.90;;;;;;5030387;28;20203;-77
2022/08/02 00:05:12;;;;;;;6.28;4.25;;;17.90;99.90;;;;;;5022924;28;20207;-77
2022/08/02 00:07:40;;;;;;;7.60;4.72;;;17.60;99.90;;;;;;5015284;28;20217;-77
2022/08/02 00:10:10;;;;;;;6.97;3.60;;;17.40;99.90;;;;;;5016250;28;20542;-77
2022/08/02 00:12:37;;;;;;;6.45;4.00;;;17.60;99.90;;;;;;5015184;28;20215;-77
2022/08/02 00:15:06;;;;;;;4.25;3.40;;;17.60;99.90;;;;;;5017088;28;20195;-77
2022/08/02 00:17:34;;;;;;;4.60;3.40;;;17.70;99.90;;;;;;5038498;28;20191;-77
2022/08/02 00:20:02;;;;;;;4.50;3.58;;;17.70;99.90;;;;;;5019069;28;20211;-77
2022/08/02 00:22:31;;;;;;;4.22;3.63;;;17.70;99.90;;;;;;5013272;28;20234;-77
2022/08/02 00:24:58;;;;;;;5.93;3.85;;;17.70;99.90;;;;;;5010755;28;20279;-77
2022/08/02 00:27:25;;;;;;;6.93;3.65;;;17.80;99.90;;;;;;5029606;28;20203;-77
2022/08/02 00:29:54;;;;;;;5.65;4.13;;;17.70;99.90;;;;;;5014898;28;20202;-77
2022/08/02 00:32:22;;;;;;;6.65;4.35;;;17.50;99.90;;;;;;5011031;28;20227;-77
2022/08/02 00:34:51;;;;;;;4.13;3.63;;;17.60;99.90;;;;;;5010057;28;20210;-77
2022/08/02 00:37:18;;;;;;;5.63;3.95;;;17.70;99.90;;;;;;5011593;28;20217;-77
2022/08/02 00:39:47;;;;;;;3.92;3.63;;;17.50;99.90;;;;;;5026661;28;20547;-78
2022/08/02 00:42:15;;;;;;;4.85;3.70;;;17.60;99.90;;;;;;5012033;28;20590;-77
2022/08/02 00:44:43;;;;;;;5.95;3.90;;;17.30;99.90;;;;;;5016288;28;20203;-77
2022/08/02 00:47:10;;;;;;;4.18;3.40;;;17.50;99.90;;;;;;5014147;28;20206;-77
2022/08/02 00:49:38;;;;;;;4.97;3.55;;;17.30;99.90;;;;;;5016790;28;20205;-77
2022/08/02 00:52:06;;;;;;;6.72;3.72;;;17.30;99.90;;;;;;5014918;28;20221;-77
2022/08/02 00:54:33;;;;;;;4.20;3.35;;;17.20;99.90;;;;;;5013686;28;20684;-77
2022/08/02 00:57:02;;;;;;;6.57;3.80;;;17.20;99.90;;;;;;5026415;28;20198;-77
2022/08/02 00:59:29;;;;;;;4.72;3.50;;;16.80;99.90;;;;;;5004739;28;20223;-77
2022/08/02 01:01:57;;;;;;;5.22;3.33;;;16.70;99.90;;;;;;5010285;28;20215;-77
2022/08/02 01:04:26;;;;;;;4.80;3.00;;;16.60;99.90;;;;;;5030642;28;20199;-77
2022/08/02 01:06:53;;;;;;;6.97;3.53;;;16.60;99.90;;;;;;5011776;28;20195;-77
2022/08/02 01:09:21;;;;;;;5.97;3.80;;;16.70;99.90;;;;;;5030744;28;20658;-77
2022/08/02 01:11:48;;;;;;;4.38;3.13;;;16.90;99.90;;;;;;5009481;28;20233;-77
2022/08/02 01:14:19;;;;;;;4.18;3.10;;;16.90;99.90;;;;;;5012767;28;20203;-77
2022/08/02 01:16:50;;;;;;;4.50;3.35;;;17.00;99.90;;;;;;5006365;28;20199;-77
2022/08/02 01:19:34;;;;;;;5.03;3.35;;;16.90;99.90;;;;;;5022549;28;20217;-77
2022/08/02 01:22:31;;;;;;;5.07;3.20;;;17.00;99.90;;;;;;5011021;28;20222;-77
2022/08/02 01:25:18;;;;;;;4.22;3.25;;;17.10;99.90;;;;;;5006346;28;20204;-77
2022/08/02 01:28:04;;;;;;;4.05;3.75;;;16.90;99.90;;;;;;5006933;28;20199;-77
2022/08/02 01:30:34;;;;;;;3.85;3.00;;;16.50;99.90;;;;;;5010139;28;20195;-77
2022/08/02 01:33:04;;;;;;;6.40;4.05;;;16.70;99.90;;;;;;5026913;28;20201;-77
2022/08/02 01:35:41;;;;;;;5.43;3.45;;;16.90;99.90;;;;;;5011511;28;20210;-77
2022/08/02 01:38:16;;;;;;;6.53;3.40;;;17.00;99.90;;;;;;5015096;28;20199;-77
2022/08/02 01:40:46;;;;;;;4.30;3.65;;;17.10;99.90;;;;;;5011584;28;20230;-77
2022/08/02 01:43:17;;;;;;;7.22;3.92;;;17.10;99.90;;;;;;5010343;28;20199;-77
2022/08/02 01:45:47;;;;;;;5.45;4.13;;;17.00;99.90;;;;;;5004948;28;20207;-77
2022/08/02 01:48:16;;;;;;;6.00;4.00;;;16.70;99.90;;;;;;5008153;28;20199;-77
2022/08/02 01:50:47;;;;;;;5.80;4.15;;;16.80;99.90;;;;;;5010821;28;20229;-77
2022/08/02 01:53:15;;;;;;;5.45;4.40;;;16.90;99.90;;;;;;5025852;28;20195;-77
2022/08/02 01:55:45;;;;;;;6.18;4.13;;;16.80;99.90;;;;;;5024014;28;20677;-77
2022/08/02 01:58:17;;;;;;;7.28;5.03;;;16.80;99.90;;;;;;5029393;28;20195;-77
2022/08/02 02:00:46;;;;;;;4.32;3.92;;;16.80;99.90;;;;;;5003295;28;20318;-77
2022/08/02 02:03:19;;;;;;;5.50;3.90;;;17.00;99.90;;;;;;5009594;28;20224;-77
2022/08/02 02:05:48;;;;;;;4.35;3.63;;;17.00;99.90;;;;;;5005451;28;20634;-77
2022/08/02 02:08:21;;;;;;;5.80;3.60;;;17.00;99.90;;;;;;5009920;28;20244;-77
2022/08/02 02:10:49;;;;;;;3.95;3.47;;;16.90;99.90;;;;;;5008402;28;20217;-77
2022/08/02 02:13:20;;;;;;;4.68;3.78;;;17.00;99.90;;;;;;5010237;28;20203;-77
2022/08/02 02:15:49;;;;;;;3.75;3.22;;;17.00;99.90;;;;;;5007517;28;20205;-77
2022/08/02 02:18:21;;;;;;;5.25;3.25;;;17.00;99.90;;;;;;5004498;28;20198;-77
2022/08/02 02:20:49;;;;;;;7.50;3.88;;;17.00;99.90;;;;;;5008743;28;20223;-77
2022/08/02 02:23:17;;;;;;;4.65;3.40;;;17.20;99.90;;;;;;5009718;28;20203;-77
2022/08/02 02:25:46;;;;;;;4.20;3.53;;;17.10;99.90;;;;;;5006811;28;20191;-77
2022/08/02 02:28:20;;;;;;;3.67;3.38;;;17.10;99.90;;;;;;5010186;28;20214;-77
2022/08/02 02:30:55;;;;;;;5.65;4.03;;;17.10;99.90;;;;;;5001161;28;20219;-77
2022/08/02 02:33:38;;;;;;;5.22;4.47;;;17.20;99.90;;;;;;5010978;28;20202;-77
2022/08/02 02:36:08;;;;;;;6.15;4.95;;;16.90;99.90;;;;;;5025741;28;20198;-77
2022/08/02 02:38:36;;;;;;;7.88;5.50;;;16.70;99.90;;;;;;5027569;28;20214;-77
2022/08/02 02:41:06;;;;;;;5.38;4.82;;;16.80;99.90;;;;;;5005030;28;20234;-77
2022/08/02 02:43:37;;;;;;;8.13;5.65;;;16.50;99.90;;;;;;5005779;28;20210;-77
2022/08/02 02:46:08;;;;;;;6.90;6.20;;;16.20;99.90;;;;;;5023406;28;20199;-77
2022/08/02 02:48:36;;;;;;;7.72;6.03;;;16.40;99.90;;;;;;5012809;28;20191;-77
2022/08/02 02:51:05;;;;;;;6.45;5.75;;;16.60;99.90;;;;;;5002137;28;20215;-77
2022/08/02 02:53:34;;;;;;;6.00;5.47;;;16.60;99.90;;;;;;5011167;28;20585;-77
2022/08/02 02:56:02;;;;;;;8.05;5.15;;;16.40;99.90;;;;;;5004363;28;20206;-77
2022/08/02 02:58:30;;;;;;;6.13;5.28;;;16.50;99.90;;;;;;5006713;28;20415;-77
2022/08/02 03:03:45;;;;;;;5.20;4.45;;;16.60;99.90;;;;;;5009709;28;20207;-76
2022/08/02 03:06:13;;;;;;;6.13;4.85;;;16.70;99.90;;;;;;5012275;28;21802;-77
2022/08/02 03:08:40;;;;;;;4.95;4.45;;;16.80;99.90;;;;;;5028633;28;20207;-77
2022/08/02 03:11:09;;;;;;;11.18;5.25;;;16.80;99.90;;;;;;5010674;28;20215;-77
2022/08/02 03:13:38;;;;;;;5.15;4.57;;;16.80;99.90;;;;;;5030979;28;20194;-77
2022/08/02 03:16:06;;;;;;;8.00;4.65;;;16.80;99.90;;;;;;5007635;28;20199;-77
2022/08/02 03:18:34;;;;;;;5.68;4.72;;;16.80;99.90;;;;;;5032486;28;20657;-77
2022/08/02 03:21:05;;;;;;;5.93;4.07;;;16.90;99.90;;;;;;5015136;28;20233;-77
2022/08/02 03:23:33;;;;;;;3.80;3.50;;;16.90;99.90;;;;;;5033925;28;20198;-77
2022/08/02 03:26:01;;;;;;;5.07;4.57;;;16.90;99.90;;;;;;5032009;28;20195;-77
2022/08/02 03:28:29;;;;;;;5.15;4.65;;;16.90;99.90;;;;;;5030457;28;20218;-77
2022/08/02 03:30:57;;;;;;;5.57;4.22;;;16.70;99.90;;;;;;5033921;28;20219;-77
2022/08/02 03:33:26;;;;;;;7.90;5.25;;;16.60;99.90;;;;;;5017875;28;20206;-77
2022/08/02 03:35:55;;;;;;;7.85;4.85;;;16.60;99.90;;;;;;5029562;28;20665;-77
2022/08/02 03:38:25;;;;;;;5.35;4.85;;;16.60;99.90;;;;;;5028238;28;20203;-77
2022/08/02 03:40:54;;;;;;;8.18;5.00;;;16.60;99.90;;;;;;5034798;28;20227;-77
2022/08/02 03:43:23;;;;;;;5.63;4.60;;;16.50;99.90;;;;;;5009215;28;20222;-77
2022/08/02 03:45:51;;;;;;;5.10;4.60;;;16.60;99.90;;;;;;5015856;28;20206;-77
2022/08/02 03:48:19;;;;;;;5.25;4.30;;;16.50;99.90;;;;;;5017671;28;20599;-77
2022/08/02 03:50:48;;;;;;;5.80;5.03;;;16.60;99.90;;;;;;5029890;28;20681;-77
2022/08/02 03:53:17;;;;;;;6.03;4.40;;;16.70;99.90;;;;;;5009905;28;20199;-77
2022/08/02 03:55:47;;;;;;;7.13;5.07;;;16.90;99.90;;;;;;5028175;28;20207;-77
2022/08/02 03:58:18;;;;;;;6.65;5.45;;;17.10;99.90;;;;;;5011170;28;20199;-77
2022/08/02 04:00:46;;;;;;;5.25;4.75;;;17.10;99.90;;;;;;5013216;28;20226;-77
2022/08/02 04:03:14;;;;;;;6.22;5.32;;;17.10;99.90;;;;;;5032809;28;20657;-77
2022/08/02 04:05:41;;;;;;;6.50;4.53;;;17.20;99.90;;;;;;5016489;28;20195;-77
2022/08/02 04:08:09;;;;;;;7.10;5.25;;;17.20;99.90;;;;;;5017174;28;20587;-77
2022/08/02 04:13:20;;;;;;;8.02;4.30;;;17.60;99.90;;;;;;5010858;28;20203;-77
2022/08/02 04:15:50;;;;;;;5.55;4.82;;;17.50;99.90;;;;;;5024883;28;20222;-77
2022/08/02 04:18:19;;;;;;;6.20;4.25;;;17.20;99.90;;;;;;5034419;28;20198;-77
2022/08/02 04:20:49;;;;;;;6.60;4.57;;;17.10;99.90;;;;;;5015615;28;20215;-77
2022/08/02 04:23:18;;;;;;;4.75;4.32;;;17.00;99.90;;;;;;5034800;28;20197;-77
2022/08/02 04:25:46;;;;;;;5.57;4.90;;;16.90;99.90;;;;;;5013831;28;20203;-77
2022/08/02 04:28:16;;;;;;;6.65;4.70;;;16.80;99.90;;;;;;5022438;28;20195;-77
2022/08/02 04:30:46;;;;;;;6.60;4.57;;;16.90;99.90;;;;;;5013766;28;20215;-77
2022/08/02 04:33:14;;;;;;;5.43;4.65;;;17.00;99.90;;;;;;5032982;28;20206;-77
2022/08/02 04:35:41;;;;;;;6.22;4.90;;;17.00;99.90;;;;;;5015215;28;20712;-77
2022/08/02 04:38:09;;;;;;;5.47;4.97;;;17.00;99.90;;;;;;5012750;28;20678;-77
2022/08/02 04:40:38;;;;;;;6.05;5.40;;;17.00;99.90;;;;;;5032973;28;20213;-77
2022/08/02 04:43:05;;;;;;;7.00;5.40;;;17.10;99.90;;;;;;5010788;28;20214;-77
2022/08/02 04:45:33;;;;;;;5.05;4.55;;;17.20;99.90;;;;;;5015565;28;20204;-77
2022/08/02 04:48:02;;;;;;;5.28;4.80;;;17.30;99.90;;;;;;5016433;28;20560;-77
2022/08/02 04:50:29;;;;;;;6.15;5.05;;;17.30;99.90;;;;;;5014795;28;20206;-77
2022/08/02 04:52:56;;;;;;;7.28;5.50;;;17.50;99.90;;;;;;5027834;28;20183;-77
2022/08/02 04:55:28;;;;;;;5.50;4.90;;;17.50;99.90;;;;;;5011264;28;20572;-77
2022/08/02 04:57:57;;;;;;;8.88;5.28;;;17.50;99.90;;;;;;5019487;28;20203;-78
2022/08/02 05:00:25;;;;;;;8.73;5.57;;;17.70;99.90;;;;;;5010815;28;20195;-78
2022/08/02 05:02:53;;;;;;;5.22;4.72;;;17.70;99.90;;;;;;5007261;28;20234;-78
2022/08/02 05:05:23;;;;;;;5.25;4.70;;;17.80;99.90;;;;;;5011537;28;20207;-78
2022/08/02 05:08:00;;;;;;;7.22;5.88;;;18.10;99.90;;;;;;5012425;28;20187;-78
2022/08/02 05:10:27;;;;;;;7.22;5.70;;;18.00;99.90;;;;;;5013144;28;20190;-78
2022/08/02 05:13:16;;;;;;;6.22;5.57;;;17.90;99.90;;;;;;5015731;28;20199;-78
2022/08/02 05:15:49;;;;;;;9.68;6.32;;;18.00;99.90;;;;;;5007899;28;20210;-78
2022/08/02 05:18:16;;;;;;;7.05;5.10;;;17.90;99.90;;;;;;5009850;28;20688;-77
2022/08/02 05:20:45;;;;;;;6.70;5.50;;;18.30;99.90;;;;;;5011011;28;20578;-77
2022/08/02 05:23:14;;;;;;;7.35;5.63;;;18.50;99.90;;;;;;5028035;28;20210;-77
2022/08/02 05:25:43;;;;;;;6.45;5.75;;;18.60;99.90;;;;;;5012046;28;20199;-77
2022/08/02 05:28:11;;;;;;;7.50;6.00;;;18.40;99.90;;;;;;4998328;28;20206;-77
2022/08/02 05:30:38;;;;;;;6.47;5.75;;;18.30;99.90;;;;;;5014189;28;20226;-77
2022/08/02 05:33:06;;;;;;;10.52;5.30;;;18.40;99.90;;;;;;5006698;28;20206;-77
2022/08/02 05:35:34;;;;;;;8.77;6.35;;;18.40;99.90;;;;;;5006944;28;20203;-77
2022/08/02 05:38:08;;;;;;;9.02;6.85;;;18.40;99.90;;;;;;5011335;28;20218;-77
2022/08/02 05:40:35;;;;;;;10.68;6.13;;;18.50;99.90;;;;;;5003427;28;20215;-77
2022/08/02 05:43:16;;;;;;;8.63;6.90;;;18.30;99.90;;;;;;5012759;28;20219;-78
2022/08/02 05:46:13;;;;;;;9.95;6.50;;;18.20;99.90;;;;;;5008701;28;20206;-77
2022/08/02 05:48:40;;;;;;;6.88;5.95;;;18.20;99.90;;;;;;5012132;28;20203;-77
2022/08/02 05:51:12;;;;;;;8.23;6.18;;;18.60;99.90;;;;;;5010408;28;20579;-77
2022/08/02 05:53:50;;;;;;;10.85;7.25;;;18.80;99.90;;;;;;5023531;28;20198;-77
2022/08/02 05:56:25;;;;;;;15.10;6.28;;;18.90;99.90;;;;;;5026945;28;20214;-77
2022/08/02 05:59:00;;;;;;;7.30;5.03;;;19.00;99.90;;;;;;5028000;28;20202;-78
2022/08/02 06:01:32;;;;;;;6.97;6.28;;;19.10;99.90;;;;;;5006483;28;20585;-78
2022/08/02 06:04:01;;;;;;;6.53;5.65;;;19.40;99.90;;;;;;5009062;28;20222;-77
2022/08/02 06:06:33;;;;;;;8.30;5.70;;;19.30;99.90;;;;;;5003063;28;20198;-78
2022/08/02 06:09:08;;;;;;;8.55;5.43;;;19.60;99.90;;;;;;5005934;28;20195;-79
2022/08/02 06:11:38;;;;;;;5.20;4.32;;;19.70;99.90;;;;;;5001954;28;20219;-78
2022/08/02 06:14:07;;;;;;;5.70;4.45;;;20.10;99.90;;;;;;5024953;28;20199;-78
2022/08/02 06:16:35;;;;;;;4.82;3.85;;;20.30;99.90;;;;;;5009297;28;20673;-78
2022/08/02 06:19:04;;;;;;;6.30;4.18;;;20.50;99.90;;;;;;5028913;28;20653;-77
2022/08/02 06:21:32;;;;;;;6.82;4.85;;;20.40;99.90;;;;;;5004351;28;20230;-78
2022/08/02 06:23:59;;;;;;;4.97;4.47;;;20.60;99.90;;;;;;5025880;28;20198;-78
2022/08/02 06:26:28;;;;;;;6.43;5.82;;;20.70;99.90;;;;;;5009235;28;20568;-78
2022/08/02 06:28:58;;;;;;;6.15;4.45;;;20.60;99.90;;;;;;5006712;28;20206;-78
2022/08/02 06:31:25;;;;;;;7.28;4.72;;;20.60;99.90;;;;;;5009982;28;20233;-78
2022/08/02 06:33:53;;;;;;;6.72;4.97;;;20.80;99.90;;;;;;5009796;28;20207;-78
2022/08/02 06:36:50;;;;;;;9.15;4.55;;;20.80;99.90;;;;;;5010307;28;20207;-78
2022/08/02 06:39:22;;;;;;;7.07;5.80;;;20.80;99.90;;;;;;5006309;28;20672;-78
2022/08/02 06:41:54;;;;;;;5.78;4.35;;;20.80;99.90;;;;;;5009281;28;20238;-79
2022/08/02 06:44:25;;;;;;;6.15;4.55;;;20.80;99.90;;;;;;5032128;28;20213;-78
2022/08/02 06:46:52;;;;;;;8.45;7.18;;;21.00;99.90;;;;;;5032267;28;20190;-78
2022/08/02 06:49:20;;;;;;;5.63;5.13;;;20.90;99.90;;;;;;5033452;28;20213;-78
2022/08/02 06:51:47;;;;;;;8.02;5.20;;;20.80;99.90;;;;;;5031852;28;20218;-78
2022/08/02 06:54:20;;;;;;;6.53;5.20;;;20.90;99.90;;;;;;5029403;28;20664;-78
2022/08/02 06:56:48;;;;;;;7.57;5.25;;;21.00;99.90;;;;;;5048541;28;20591;-77
2022/08/02 06:59:17;;;;;;;8.45;6.40;;;21.00;99.90;;;;;;5030513;28;20198;-77
2022/08/02 07:01:44;;;;;;;8.35;6.00;;;20.90;99.90;;;;;;5044959;28;20226;-77
2022/08/02 07:04:32;;;;;;;6.63;5.25;;;20.70;99.90;;;;;;5119939;27;20574;-76
2022/08/02 07:07:00;;;;;;;8.68;5.30;;;20.80;99.90;;;;;;5119257;27;20192;-77
2022/08/02 07:09:28;;;;;;;5.82;5.22;;;21.00;99.90;;;;;;5115452;28;20208;-77
2022/08/02 07:11:55;;;;;;;8.88;4.97;;;21.10;99.90;;;;;;5104962;28;20579;-77
2022/08/02 07:14:23;;;;;;;7.72;4.78;;;21.10;99.90;;;;;;5099688;28;20203;-77
2022/08/02 07:16:52;;;;;;;9.07;5.30;;;21.20;99.90;;;;;;5101604;28;20201;-76
2022/08/02 07:19:19;;;;;;;4.95;4.40;;;21.20;99.90;;;;;;5099412;28;20200;-76
2022/08/02 07:21:48;;;;;;;6.50;4.20;;;21.40;99.90;;;;;;5101211;28;20212;-76
2022/08/02 07:24:16;;;;;;;5.13;4.07;;;21.40;99.90;;;;;;5102056;28;20220;-76
2022/08/02 07:26:44;;;;;;;8.57;4.50;;;21.40;99.90;;;;;;5100536;28;20200;-76
2022/08/02 07:29:11;;;;;;;7.03;4.55;;;21.20;99.90;;;;;;5104949;28;20666;-76
2022/08/02 07:31:40;;;;;;;6.03;4.47;;;21.20;99.90;;;;;;5119796;27;20220;-76
2022/08/02 07:34:16;;;;;;;6.10;3.78;;;21.30;99.90;;;;;;5097939;28;20197;-76
2022/08/02 07:36:48;;;;;;;7.38;3.65;;;21.50;99.90;;;;;;5098318;28;20207;-78
2022/08/02 07:39:15;;;;;;;5.47;4.07;;;21.60;99.90;;;;;;5106580;28;20197;-77
2022/08/02 07:41:43;;;;;;;5.47;4.07;;;21.50;99.90;;;;;;5106238;28;20216;-78
2022/08/02 07:44:11;;;;;;;6.57;4.05;;;21.60;99.90;;;;;;5092734;28;20213;-78
2022/08/02 07:46:38;;;;;;;4.50;3.35;;;21.60;99.90;;;;;;5111079;28;20204;-78
2022/08/02 07:49:06;;;;;;;3.63;3.35;;;21.70;99.90;;;;;;5101630;28;20203;-78
2022/08/02 07:51:34;;;;;;;5.68;3.47;;;21.80;99.90;;;;;;5097022;28;20225;-78
2022/08/02 07:54:04;;;;;;;4.07;3.60;;;21.80;99.90;;;;;;5103108;28;20193;-78
2022/08/02 07:56:31;;;;;;;3.40;3.10;;;21.70;99.90;;;;;;5105489;28;20207;-78
2022/08/02 07:58:59;;;;;;;3.40;2.92;;;21.70;99.90;;;;;;5104628;28;20204;-78
2022/08/02 08:01:26;;;;;;;4.20;3.42;;;21.70;99.90;;;;;;5102664;28;20219;-78
2022/08/02 08:03:54;;;;;;;3.88;2.97;;;21.80;99.90;;;;;;5100641;28;20223;-78
2022/08/02 08:06:21;;;;;;;5.53;3.08;;;21.80;99.90;;;;;;5098243;28;20212;-78
2022/08/02 08:08:49;;;;;;;4.07;2.97;;;21.90;99.90;;;;;;5106911;28;20192;-78
2022/08/02 08:11:18;;;;;;;4.63;3.08;;;22.00;99.90;;;;;;5100842;28;20223;-78
2022/08/02 08:13:45;;;;;;;5.32;3.35;;;21.90;99.90;;;;;;5110300;27;20188;-77
2022/08/02 08:16:13;;;;;;;5.30;3.17;;;22.00;99.90;;;;;;5086470;28;20209;-77
2022/08/02 08:18:41;;;;;;;3.58;2.80;;;22.10;99.90;;;;;;5086978;28;20204;-78
2022/08/02 08:21:09;;;;;;;4.50;2.70;;;22.10;99.90;;;;;;5089142;28;20229;-78
2022/08/02 08:23:37;;;;;;;2.92;2.72;;;22.30;99.90;;;;;;5083757;28;20237;-78
2022/08/02 08:26:05;;;;;;;3.00;2.55;;;22.40;99.90;;;;;;5088137;28;20197;-78
2022/08/02 08:28:34;;;;;;;3.13;2.72;;;22.40;99.90;;;;;;5090524;28;20220;-78
2022/08/02 08:31:02;;;;;;;5.13;3.20;;;22.40;99.90;;;;;;5091035;28;20216;-78
2022/08/02 08:33:29;;;;;;;3.35;2.20;;;22.40;99.90;;;;;;5106938;28;20197;-78
2022/08/02 08:35:57;;;;;;;3.15;2.40;;;22.40;99.90;;;;;;5088084;28;20189;-78
2022/08/02 08:38:25;;;;;;;4.07;2.50;;;22.50;99.90;;;;;;5106207;28;21052;-78
2022/08/02 08:40:58;;;;;;;2.95;2.40;;;22.60;99.90;;;;;;5090200;28;20209;-78
2022/08/02 08:43:26;;;;;;;2.53;2.33;;;22.60;99.90;;;;;;5088352;28;20205;-79
2022/08/02 08:45:55;;;;;;;3.85;2.45;;;22.70;99.90;;;;;;5091094;28;20201;-78
2022/08/02 08:48:25;;;;;;;1.85;1.75;;;22.70;99.40;;;;;;5089253;28;20201;-79
2022/08/02 08:50:55;;;;;;;2.95;2.13;;;22.80;99.40;;;;;;5083498;28;20232;-78
2022/08/02 08:53:26;;;;;;;2.28;2.00;;;22.80;98.90;;;;;;5086823;28;20193;-78
2022/08/02 08:55:57;;;;;;;3.22;2.60;;;22.90;98.10;;;;;;5099704;28;20198;-78
2022/08/02 08:58:24;;;;;;;2.80;2.03;;;23.10;96.60;;;;;;5089769;28;20199;-78
2022/08/02 09:00:52;;;;;;;2.45;2.25;;;23.10;96.30;;;;;;5090674;28;20208;-78
2022/08/02 09:03:23;;;;;;;2.17;2.08;;;23.30;95.20;;;;;;5089496;28;20220;-78
2022/08/02 09:05:50;;;;;;;2.90;2.25;;;23.40;94.90;;;;;;5081644;28;20193;-78
2022/08/02 09:08:22;;;;;;;3.60;2.40;;;23.50;95.00;;;;;;5090537;28;20208;-78
2022/08/02 09:10:50;;;;;;;3.60;2.90;;;23.40;95.00;;;;;;5087114;28;20224;-78
2022/08/02 09:13:20;;;;;;;2.65;2.45;;;23.30;96.00;;;;;;5087625;28;20685;-79
2022/08/02 09:15:57;;;;;;;4.05;3.10;;;23.30;95.60;;;;;;5106870;28;20209;-79
2022/08/02 09:18:42;;;;;;;4.50;2.72;;;23.40;95.20;;;;;;5090417;28;20203;-78
2022/08/02 09:21:10;;;;;;;4.97;2.90;;;23.40;96.00;;;;;;5092865;28;20224;-79
2022/08/02 09:23:41;;;;;;;5.78;2.53;;;23.40;95.90;;;;;;5094160;28;20228;-79
2022/08/02 09:26:19;;;;;;;3.53;3.22;;;23.40;96.40;;;;;;5099295;28;20209;-79
2022/08/02 09:28:51;;;;;;;2.70;2.50;;;23.40;96.20;;;;;;5115130;28;20200;-79
2022/08/02 09:31:23;;;;;;;2.70;2.47;;;23.50;96.70;;;;;;5096473;28;20220;-79
2022/08/02 09:33:55;;;;;;;3.15;2.83;;;23.90;96.10;;;;;;5096298;28;20193;-81
2022/08/02 09:36:23;;;;;;;3.40;2.80;;;24.00;95.90;;;;;;5093642;28;20196;-82
2022/08/02 09:38:57;;;;;;;4.80;3.30;;;24.00;95.80;;;;;;5092003;28;20197;-81
2022/08/02 09:41:26;;;;;;;4.35;3.15;;;24.10;96.10;;;;;;5092290;28;20224;-82
2022/08/02 09:43:55;;;;;;;3.90;3.10;;;24.00;96.00;;;;;;5094564;28;20678;-81
2022/08/02 09:46:26;;;;;;;3.58;3.28;;;24.10;96.30;;;;;;5088994;28;20222;-81
2022/08/02 09:48:58;;;;;;;3.55;3.15;;;24.00;96.40;;;;;;5088312;28;20193;-81
2022/08/02 09:51:28;;;;;;;3.65;3.25;;;24.00;96.70;;;;;;5086762;28;20225;-81
2022/08/02 09:53:58;;;;;;;3.38;3.08;;;24.00;96.90;;;;;;5091012;28;20196;-81
2022/08/02 09:56:39;;;;;;;3.95;3.28;;;24.00;97.20;;;;;;5088304;28;20212;-78
2022/08/02 09:59:07;;;;;;;4.88;4.25;;;23.90;97.20;;;;;;5093863;28;20196;-79
2022/08/02 10:01:38;;;;;;;4.70;3.40;;;23.90;97.40;;;;;;5100394;28;20227;-77
2022/08/02 10:04:10;;;;;;;5.28;3.95;;;24.00;97.40;;;;;;5115853;28;20228;-77
2022/08/02 10:06:38;;;;;;;5.05;3.20;;;24.10;98.10;;;;;;5104109;28;20201;-78
2022/08/02 10:09:06;;;;;;;3.45;3.22;;;24.50;98.10;;;;;;5099839;28;20190;-78
2022/08/02 10:11:34;;;;;;;3.67;3.20;;;24.30;97.70;;;;;;5100631;28;20216;-78
2022/08/02 10:14:05;;;;;;;4.10;3.33;;;24.20;98.30;;;;;;5086432;28;20190;-79
2022/08/02 10:16:34;;;;;;;3.63;3.35;;;24.30;98.70;;;;;;5094208;28;20204;-79
2022/08/02 10:19:03;;;;;;;5.93;3.78;;;24.40;98.60;;;;;;5087587;28;20197;-79
2022/08/02 10:21:36;;;;;;;3.67;3.35;;;24.50;98.40;;;;;;5091151;28;20221;-79
2022/08/02 10:24:07;;;;;;;5.15;3.67;;;24.60;98.40;;;;;;5088870;28;20215;-79
2022/08/02 10:26:42;;;;;;;4.00;3.20;;;24.80;97.80;;;;;;5089815;28;20193;-79
2022/08/02 10:29:11;;;;;;;4.32;3.92;;;24.80;97.60;;;;;;5093488;28;20197;-79
2022/08/02 10:31:43;;;;;;;3.17;2.97;;;24.80;97.20;;;;;;5084467;28;20217;-78
2022/08/02 10:34:16;;;;;;;3.70;2.97;;;24.70;97.10;;;;;;5090350;28;20193;-78
2022/08/02 10:36:46;;;;;;;4.88;3.03;;;24.80;97.40;;;;;;5094915;28;20193;-80
2022/08/02 10:39:13;;;;;;;4.60;4.05;;;25.00;97.70;;;;;;5084482;28;20204;-80
2022/08/02 10:41:43;;;;;;;4.07;3.78;;;25.10;96.60;;;;;;5087339;28;20221;-80
2022/08/02 10:44:21;;;;;;;3.45;3.15;;;25.00;96.50;;;;;;5088722;28;20587;-80
2022/08/02 10:46:49;;;;;;;4.57;3.65;;;25.30;97.00;;;;;;5094596;28;20564;-80
2022/08/02 10:49:18;;;;;;;5.10;4.30;;;25.30;96.40;;;;;;5085690;28;20659;-80
2022/08/02 10:52:07;;;;;;;3.90;3.35;;;25.00;96.60;;;;;;5089118;28;20209;-80
2022/08/02 10:54:37;;;;;;;5.78;4.30;;;25.30;96.60;;;;;;5077673;28;20196;-80
2022/08/02 10:57:19;;;;;;;4.40;4.00;;;25.50;95.70;;;;;;5085933;28;20200;-80
2022/08/02 10:59:46;;;;;;;5.53;4.78;;;25.40;95.00;;;;;;5089705;28;20196;-80
2022/08/02 11:02:32;;;;;;;4.82;4.30;;;25.30;94.90;;;;;;5083811;28;20220;-80
2022/08/02 11:05:06;;;;;;;4.30;3.90;;;25.40;95.50;;;;;;5080103;28;20797;-80
2022/08/02 11:07:37;;;;;;;5.30;3.97;;;25.60;94.20;;;;;;5078125;28;20548;-81
2022/08/02 11:10:28;;;;;;;4.03;3.60;;;25.50;93.70;;;;;;5084461;28;20201;-80
2022/08/02 11:13:00;;;;;;;3.67;3.33;;;25.30;93.10;;;;;;5083737;28;20635;-80
2022/08/02 11:15:27;;;;;;;4.03;3.63;;;25.50;94.00;;;;;;5077399;28;20208;-81
2022/08/02 11:17:57;;;;;;;4.88;3.90;;;25.70;94.40;;;;;;5088216;28;20318;-80
2022/08/02 11:20:26;;;;;;;5.05;4.32;;;25.90;93.70;;;;;;5084561;28;20201;-80
2022/08/02 11:23:15;;;;;;;7.38;4.45;;;25.70;93.20;;;;;;5087575;28;20193;-81
2022/08/02 11:25:44;;;;;;;4.40;4.00;;;25.80;93.90;;;;;;5087924;28;20208;-78
2022/08/02 11:28:12;;;;;;;5.05;3.90;;;25.90;94.00;;;;;;5092443;28;20197;-80
2022/08/02 11:30:40;;;;;;;4.10;3.70;;;25.90;94.10;;;;;;5089721;28;20220;-79
2022/08/02 11:33:08;;;;;;;7.07;4.65;;;26.00;94.20;;;;;;5084476;28;20196;-79
2022/08/02 11:35:37;;;;;;;4.93;4.20;;;26.10;94.00;;;;;;5084407;28;20204;-79
2022/08/02 11:38:15;;;;;;;3.88;3.42;;;26.20;93.70;;;;;;5082515;28;20198;-79
2022/08/02 11:40:47;;;;;;;5.38;3.67;;;26.20;93.20;;;;;;5085312;28;20255;-80
2022/08/02 11:43:22;;;;;;;6.13;4.13;;;26.30;93.00;;;;;;5082871;28;20198;-80
2022/08/02 11:45:51;;;;;;;4.57;3.88;;;26.40;92.50;;;;;;5091565;28;20212;-80
2022/08/02 11:48:32;;;;;;;4.00;3.70;;;26.20;92.40;;;;;;5084859;28;20683;-80
2022/08/02 11:51:08;;;;;;;3.55;3.20;;;25.90;93.00;;;;;;5090584;28;20220;-80
2022/08/02 11:53:47;;;;;;;6.57;3.65;;;26.10;93.10;;;;;;5086666;28;20208;-79
2022/08/02 11:56:18;;;;;;;4.15;3.72;;;26.20;92.50;;;;;;5092371;28;20197;-79
2022/08/02 11:59:01;;;;;;;3.92;3.25;;;26.30;92.80;;;;;;5094995;28;20197;-79
2022/08/02 12:01:30;;;;;;;5.70;3.90;;;26.50;92.10;;;;;;5087813;28;20695;-79
2022/08/02 12:03:59;;;;;;;4.45;3.35;;;26.60;92.30;;;;;;5091473;28;20576;-80
2022/08/02 12:06:28;;;;;;;3.53;3.08;;;26.50;92.60;;;;;;5089013;28;20236;-79
2022/08/02 12:09:02;;;;;;;3.17;2.90;;;26.60;92.60;;;;;;5086869;28;20205;-80
2022/08/02 12:11:31;;;;;;;6.25;2.85;;;26.60;91.50;;;;;;5089320;28;20217;-80
2022/08/02 12:13:59;;;;;;;2.80;2.60;;;26.50;91.20;;;;;;5094510;28;20207;-80
2022/08/02 12:19:18;;;;;;;2.88;2.67;;;26.50;91.80;;;;;;5084834;28;20194;-79
2022/08/02 12:21:47;;;;;;;2.88;2.20;;;26.70;91.80;;;;;;5081939;28;20221;-79
2022/08/02 12:24:26;;;;;;;2.55;2.03;;;26.80;90.90;;;;;;5082413;28;20202;-79
2022/08/02 12:26:55;;;;;;;4.07;2.50;;;26.80;89.90;;;;;;5090178;28;20227;-79
2022/08/02 12:29:30;;;;;;;4.82;2.40;;;27.00;90.10;;;;;;5096457;28;20208;-79
2022/08/02 12:31:58;;;;;;;3.30;2.50;;;27.40;88.50;;;;;;5084614;28;20219;-79
2022/08/02 12:34:27;;;;;;;6.65;2.28;;;27.40;86.30;;;;;;5095766;28;20209;-79
2022/08/02 12:36:59;;;;;;;2.95;2.15;;;27.50;86.80;;;;;;5091287;28;20201;-79
2022/08/02 12:39:39;;;;;;;2.78;2.42;;;27.60;83.60;;;;;;5089177;28;20228;-79
2022/08/02 12:42:12;;;;;;;2.22;2.08;;;27.50;84.20;;;;;;5084507;28;20225;-79
2022/08/02 12:44:50;;;;;;;3.15;2.22;;;27.50;84.40;;;;;;5086350;28;20220;-79
2022/08/02 12:47:20;;;;;;;3.15;2.25;;;27.60;85.40;;;;;;5084262;28;20209;-79
2022/08/02 12:49:47;;;;;;;2.95;2.40;;;27.50;82.90;;;;;;5096907;28;20193;-79
2022/08/02 12:52:22;;;;;;;2.42;2.22;;;27.30;83.70;;;;;;5090588;28;20214;-79
2022/08/02 12:54:50;;;;;;;2.22;2.03;;;27.40;82.90;;;;;;5089473;28;20203;-79
2022/08/02 12:57:19;;;;;;;2.65;2.45;;;27.40;83.30;;;;;;5088119;28;20193;-79
2022/08/02 12:59:52;;;;;;;3.28;2.33;;;27.60;82.70;;;;;;5076881;28;20209;-79
2022/08/02 13:02:20;;;;;;;6.78;2.03;;;27.60;82.40;;;;;;5083286;28;20737;-79
2022/08/02 13:04:47;;;;;;;2.53;2.33;;;27.50;82.40;;;;;;5092152;28;20216;-79
2022/08/02 13:07:14;;;;;;;2.58;2.38;;;27.60;82.40;;;;;;5088508;28;20217;-79
2022/08/02 13:09:44;;;;;;;3.55;2.38;;;27.80;83.30;;;;;;5085617;28;20193;-79